sensor_id;sensor_type;location;lat;lon;timestamp;temperature;humidity
8872;DHT22;4472;52.092;9.820;2022-08-25T10:26:00;27.50;91.20
8872;DHT22;4472;52.092;9.820;2022-08-25T10:28:58;27.40;91.90
8872;DHT22;4472;52.092;9.820;2022-08-25T10:31:51;27.50;91.20
8872;DHT22;4472;52.092;9.820;2022-08-25T10:34:46;27.40;91.70
8872;DHT22;4472;52.092;9.820;2022-08-25T10:37:51;27.40;92.00
8872;DHT22;4472;52.092;9.820;2022-08-25T10:40:46;27.30;92.20
8872;DHT22;4472;52.092;9.820;2022-08-25T10:43:42;27.30;92.30
8872;DHT22;4472;52.092;9.820;2022-08-25T10:46:35;27.50;91.80
8872;DHT22;4472;52.092;9.820;2022-08-25T10:49:30;27.50;91.70
8872;DHT22;4472;52.092;9.820;2022-08-25T10:52:25;27.50;91.40
8872;DHT22;4472;52.092;9.820;2022-08-25T10:55:19;27.50;91.50
8872;DHT22;4472;52.092;9.820;2022-08-25T10:58:15;28.30;91.80
8872;DHT22;4472;52.092;9.820;2022-08-25T11:01:09;27.60;91.50
8872;DHT22;4472;52.092;9.820;2022-08-25T11:04:01;27.80;91.60
8872;DHT22;4472;52.092;9.820;2022-08-25T11:06:56;27.90;91.20
8872;DHT22;4472;52.092;9.820;2022-08-25T11:09:46;28.00;90.80
8872;DHT22;4472;52.092;9.820;2022-08-25T11:12:39;28.10;90.90
8872;DHT22;4472;52.092;9.820;2022-08-25T11:15:31;28.30;90.40
8872;DHT22;4472;52.092;9.820;2022-08-25T11:18:24;28.30;90.00
8872;DHT22;4472;52.092;9.820;2022-08-25T11:21:16;28.30;89.00
8872;DHT22;4472;52.092;9.820;2022-08-25T11:24:13;28.20;89.60
8872;DHT22;4472;52.092;9.820;2022-08-25T11:27:07;27.70;89.50
8872;DHT22;4472;52.092;9.820;2022-08-25T11:30:00;28.20;89.80
8872;DHT22;4472;52.092;9.820;2022-08-25T11:32:51;28.30;89.70
8872;DHT22;4472;52.092;9.820;2022-08-25T11:35:42;28.50;89.50
8872;DHT22;4472;52.092;9.820;2022-08-25T11:38:44;28.60;88.80
8872;DHT22;4472;52.092;9.820;2022-08-25T11:41:39;28.60;87.70
8872;DHT22;4472;52.092;9.820;2022-08-25T11:44:50;28.60;87.70
8872;DHT22;4472;52.092;9.820;2022-08-25T11:47:55;28.50;86.70
8872;DHT22;4472;52.092;9.820;2022-08-25T11:50:58;28.60;88.10
8872;DHT22;4472;52.092;9.820;2022-08-25T11:53:46;28.90;87.10
8872;DHT22;4472;52.092;9.820;2022-08-25T11:56:36;29.10;87.70
8872;DHT22;4472;52.092;9.820;2022-08-25T11:59:59;29.20;86.20
8872;DHT22;4472;52.092;9.820;2022-08-25T12:02:48;29.20;84.70
8872;DHT22;4472;52.092;9.820;2022-08-25T12:06:13;29.10;85.00
8872;DHT22;4472;52.092;9.820;2022-08-25T12:09:20;29.00;84.20
8872;DHT22;4472;52.092;9.820;2022-08-25T12:12:28;28.80;84.70
8872;DHT22;4472;52.092;9.820;2022-08-25T12:15:20;28.70;84.30
8872;DHT22;4472;52.092;9.820;2022-08-25T12:18:10;28.70;85.20
8872;DHT22;4472;52.092;9.820;2022-08-25T12:21:16;28.80;84.60
8872;DHT22;4472;52.092;9.820;2022-08-25T12:24:19;29.10;84.10
8872;DHT22;4472;52.092;9.820;2022-08-25T12:27:10;29.30;84.10
8872;DHT22;4472;52.092;9.820;2022-08-25T12:30:13;29.40;83.20
8872;DHT22;4472;52.092;9.820;2022-08-25T12:33:06;29.40;83.00
8872;DHT22;4472;52.092;9.820;2022-08-25T12:35:59;29.40;83.10
8872;DHT22;4472;52.092;9.820;2022-08-25T12:38:48;29.50;83.10
8872;DHT22;4472;52.092;9.820;2022-08-25T12:41:51;29.50;83.60
8872;DHT22;4472;52.092;9.820;2022-08-25T12:44:42;29.60;82.20
8872;DHT22;4472;52.092;9.820;2022-08-25T12:47:32;29.70;82.20
8872;DHT22;4472;52.092;9.820;2022-08-25T12:50:34;29.80;81.30
8872;DHT22;4472;52.092;9.820;2022-08-25T12:53:29;29.80;80.40
8872;DHT22;4472;52.092;9.820;2022-08-25T12:56:26;29.70;80.50
8872;DHT22;4472;52.092;9.820;2022-08-25T12:59:17;29.50;80.50
8872;DHT22;4472;52.092;9.820;2022-08-25T13:05:46;29.40;80.80
8872;DHT22;4472;52.092;9.820;2022-08-25T13:12:01;29.50;80.80
8872;DHT22;4472;52.092;9.820;2022-08-25T13:14:53;29.70;80.60
8872;DHT22;4472;52.092;9.820;2022-08-25T13:17:41;29.70;80.10
8872;DHT22;4472;52.092;9.820;2022-08-25T13:20:28;29.70;80.20
8872;DHT22;4472;52.092;9.820;2022-08-25T13:23:18;29.70;79.60
8872;DHT22;4472;52.092;9.820;2022-08-25T13:26:08;29.80;79.60
8872;DHT22;4472;52.092;9.820;2022-08-25T13:28:59;30.00;79.70
8872;DHT22;4472;52.092;9.820;2022-08-25T13:31:54;30.10;79.60
8872;DHT22;4472;52.092;9.820;2022-08-25T13:34:42;30.30;77.80
8872;DHT22;4472;52.092;9.820;2022-08-25T13:37:29;30.30;77.80
8872;DHT22;4472;52.092;9.820;2022-08-25T13:40:23;30.40;79.20
8872;DHT22;4472;52.092;9.820;2022-08-25T13:43:13;30.40;75.80
8872;DHT22;4472;52.092;9.820;2022-08-25T13:46:01;30.40;77.00
8872;DHT22;4472;52.092;9.820;2022-08-25T13:49:01;30.50;78.70
8872;DHT22;4472;52.092;9.820;2022-08-25T13:51:51;30.60;77.70
8872;DHT22;4472;52.092;9.820;2022-08-25T13:54:40;30.60;77.20
8872;DHT22;4472;52.092;9.820;2022-08-25T13:57:29;30.50;77.50
8872;DHT22;4472;52.092;9.820;2022-08-25T14:00:28;30.50;77.20
8872;DHT22;4472;52.092;9.820;2022-08-25T14:03:29;30.40;75.70
8872;DHT22;4472;52.092;9.820;2022-08-25T14:06:23;30.30;77.00
8872;DHT22;4472;52.092;9.820;2022-08-25T14:09:15;30.30;76.40
8872;DHT22;4472;52.092;9.820;2022-08-25T14:12:03;30.10;76.60
8872;DHT22;4472;52.092;9.820;2022-08-25T14:14:57;29.90;77.40
8872;DHT22;4472;52.092;9.820;2022-08-25T14:17:57;29.70;78.00
8872;DHT22;4472;52.092;9.820;2022-08-25T14:20:47;29.70;79.00
8872;DHT22;4472;52.092;9.820;2022-08-25T14:23:37;29.60;79.30
8872;DHT22;4472;52.092;9.820;2022-08-25T14:26:25;29.60;78.70
8872;DHT22;4472;52.092;9.820;2022-08-25T14:29:13;29.60;79.70
8872;DHT22;4472;52.092;9.820;2022-08-25T14:32:01;29.50;79.10
8872;DHT22;4472;52.092;9.820;2022-08-25T14:34:48;29.40;79.40
8872;DHT22;4472;52.092;9.820;2022-08-25T14:37:35;29.30;79.30
8872;DHT22;4472;52.092;9.820;2022-08-25T14:40:24;29.20;79.60
8872;DHT22;4472;52.092;9.820;2022-08-25T14:43:11;29.30;80.10
8872;DHT22;4472;52.092;9.820;2022-08-25T14:46:00;29.40;79.30
8872;DHT22;4472;52.092;9.820;2022-08-25T14:48:52;29.40;78.70
8872;DHT22;4472;52.092;9.820;2022-08-25T14:51:41;29.50;78.80
8872;DHT22;4472;52.092;9.820;2022-08-25T14:54:29;29.70;78.20
8872;DHT22;4472;52.092;9.820;2022-08-25T14:57:17;29.80;78.00
8872;DHT22;4472;52.092;9.820;2022-08-25T15:00:06;29.70;78.10
8872;DHT22;4472;52.092;9.820;2022-08-25T15:02:55;29.50;77.20
8872;DHT22;4472;52.092;9.820;2022-08-25T15:05:42;29.40;78.10
8872;DHT22;4472;52.092;9.820;2022-08-25T15:08:30;29.30;78.20
8872;DHT22;4472;52.092;9.820;2022-08-25T15:11:32;29.30;78.40
8872;DHT22;4472;52.092;9.820;2022-08-25T15:14:22;29.40;78.90
8872;DHT22;4472;52.092;9.820;2022-08-25T15:17:11;29.50;79.00
8872;DHT22;4472;52.092;9.820;2022-08-25T15:19:58;29.60;78.30
8872;DHT22;4472;52.092;9.820;2022-08-25T15:22:46;29.80;78.40
8872;DHT22;4472;52.092;9.820;2022-08-25T15:25:33;29.70;77.70
8872;DHT22;4472;52.092;9.820;2022-08-25T15:28:20;29.70;78.00
8872;DHT22;4472;52.092;9.820;2022-08-25T15:31:09;29.70;77.80
8872;DHT22;4472;52.092;9.820;2022-08-25T15:33:56;29.60;77.70
8872;DHT22;4472;52.092;9.820;2022-08-25T15:36:44;29.40;78.10
8872;DHT22;4472;52.092;9.820;2022-08-25T15:39:31;29.30;78.40
8872;DHT22;4472;52.092;9.820;2022-08-25T15:42:19;29.20;79.10
8872;DHT22;4472;52.092;9.820;2022-08-25T15:45:07;29.20;79.00
8872;DHT22;4472;52.092;9.820;2022-08-25T15:47:56;29.00;78.50
8872;DHT22;4472;52.092;9.820;2022-08-25T15:50:43;29.00;78.70
8872;DHT22;4472;52.092;9.820;2022-08-25T15:53:33;28.90;79.40
8872;DHT22;4472;52.092;9.820;2022-08-25T15:56:21;28.70;78.60
8872;DHT22;4472;52.092;9.820;2022-08-25T15:59:08;28.60;80.40
8872;DHT22;4472;52.092;9.820;2022-08-25T16:01:58;28.60;79.90
8872;DHT22;4472;52.092;9.820;2022-08-25T16:04:47;28.50;80.20
8872;DHT22;4472;52.092;9.820;2022-08-25T16:07:35;28.40;80.80
8872;DHT22;4472;52.092;9.820;2022-08-25T16:10:23;28.30;80.50
8872;DHT22;4472;52.092;9.820;2022-08-25T16:13:11;28.40;81.00
8872;DHT22;4472;52.092;9.820;2022-08-25T16:15:58;28.50;80.50
8872;DHT22;4472;52.092;9.820;2022-08-25T16:18:46;28.50;80.20
8872;DHT22;4472;52.092;9.820;2022-08-25T16:21:35;28.60;80.40
8872;DHT22;4472;52.092;9.820;2022-08-25T16:24:23;28.70;80.80
8872;DHT22;4472;52.092;9.820;2022-08-25T16:27:11;28.70;80.80
8872;DHT22;4472;52.092;9.820;2022-08-25T16:29:58;28.90;80.30
8872;DHT22;4472;52.092;9.820;2022-08-25T16:32:46;28.90;79.70
8872;DHT22;4472;52.092;9.820;2022-08-25T16:35:34;29.00;80.00
8872;DHT22;4472;52.092;9.820;2022-08-25T16:38:22;29.10;79.60
8872;DHT22;4472;52.092;9.820;2022-08-25T16:41:11;29.20;80.30
8872;DHT22;4472;52.092;9.820;2022-08-25T16:43:59;29.30;79.00
8872;DHT22;4472;52.092;9.820;2022-08-25T16:46:47;29.30;78.30
8872;DHT22;4472;52.092;9.820;2022-08-25T16:49:34;29.20;78.40
8872;DHT22;4472;52.092;9.820;2022-08-25T16:52:21;29.10;78.20
8872;DHT22;4472;52.092;9.820;2022-08-25T16:55:28;29.10;78.00
8872;DHT22;4472;52.092;9.820;2022-08-25T16:58:17;29.00;78.00
8872;DHT22;4472;52.092;9.820;2022-08-25T17:01:06;29.00;78.70
8872;DHT22;4472;52.092;9.820;2022-08-25T17:03:55;28.90;78.50
8872;DHT22;4472;52.092;9.820;2022-08-25T17:06:43;28.90;79.00
8872;DHT22;4472;52.092;9.820;2022-08-25T17:09:31;28.90;78.80
8872;DHT22;4472;52.092;9.820;2022-08-25T17:12:20;28.80;79.10
8872;DHT22;4472;52.092;9.820;2022-08-25T17:15:07;28.70;79.20
8872;DHT22;4472;52.092;9.820;2022-08-25T17:17:54;28.70;79.30
8872;DHT22;4472;52.092;9.820;2022-08-25T17:20:43;28.60;79.30
8872;DHT22;4472;52.092;9.820;2022-08-25T17:23:30;28.60;79.20
8872;DHT22;4472;52.092;9.820;2022-08-25T17:26:17;28.60;79.50
8872;DHT22;4472;52.092;9.820;2022-08-25T17:29:06;28.50;79.80
8872;DHT22;4472;52.092;9.820;2022-08-25T17:31:53;28.40;80.40
8872;DHT22;4472;52.092;9.820;2022-08-25T17:34:40;28.30;80.00
8872;DHT22;4472;52.092;9.820;2022-08-25T17:37:28;28.10;80.70
8872;DHT22;4472;52.092;9.820;2022-08-25T17:40:15;28.10;80.80
8872;DHT22;4472;52.092;9.820;2022-08-25T17:43:02;28.00;81.20
8872;DHT22;4472;52.092;9.820;2022-08-25T17:45:51;27.90;81.70
8872;DHT22;4472;52.092;9.820;2022-08-25T17:48:42;27.80;81.60
8872;DHT22;4472;52.092;9.820;2022-08-25T17:51:29;27.80;81.70
8872;DHT22;4472;52.092;9.820;2022-08-25T17:54:19;27.70;81.70
8872;DHT22;4472;52.092;9.820;2022-08-25T17:57:08;27.80;81.70
8872;DHT22;4472;52.092;9.820;2022-08-25T17:59:55;27.70;81.40
8872;DHT22;4472;52.092;9.820;2022-08-25T18:02:44;27.60;81.90
8872;DHT22;4472;52.092;9.820;2022-08-25T18:05:32;27.50;81.90
8872;DHT22;4472;52.092;9.820;2022-08-25T18:08:19;27.50;82.40
8872;DHT22;4472;52.092;9.820;2022-08-25T18:11:07;27.30;82.20
8872;DHT22;4472;52.092;9.820;2022-08-25T18:13:55;27.30;82.30
8872;DHT22;4472;52.092;9.820;2022-08-25T18:16:42;27.20;82.90
8872;DHT22;4472;52.092;9.820;2022-08-25T18:19:31;27.10;82.80
8872;DHT22;4472;52.092;9.820;2022-08-25T18:22:18;27.00;83.60
8872;DHT22;4472;52.092;9.820;2022-08-25T18:25:08;26.90;83.70
8872;DHT22;4472;52.092;9.820;2022-08-25T18:27:56;26.90;83.90
8872;DHT22;4472;52.092;9.820;2022-08-25T18:30:43;26.70;84.40
8872;DHT22;4472;52.092;9.820;2022-08-25T18:33:30;26.60;84.70
8872;DHT22;4472;52.092;9.820;2022-08-25T18:36:19;26.50;85.10
8872;DHT22;4472;52.092;9.820;2022-08-25T18:39:07;26.40;86.30
8872;DHT22;4472;52.092;9.820;2022-08-25T18:42:12;26.30;86.00
8872;DHT22;4472;52.092;9.820;2022-08-25T18:45:00;26.20;85.60
8872;DHT22;4472;52.092;9.820;2022-08-25T18:47:47;26.10;86.60
8872;DHT22;4472;52.092;9.820;2022-08-25T18:50:39;26.10;86.80
8872;DHT22;4472;52.092;9.820;2022-08-25T18:53:29;26.10;87.60
8872;DHT22;4472;52.092;9.820;2022-08-25T18:56:17;26.00;87.80
8872;DHT22;4472;52.092;9.820;2022-08-25T18:59:04;26.00;88.30
8872;DHT22;4472;52.092;9.820;2022-08-25T19:01:52;25.90;88.70
8872;DHT22;4472;52.092;9.820;2022-08-25T19:04:40;25.90;88.30
8872;DHT22;4472;52.092;9.820;2022-08-25T19:07:27;25.80;89.00
8872;DHT22;4472;52.092;9.820;2022-08-25T19:10:18;25.80;89.20
8872;DHT22;4472;52.092;9.820;2022-08-25T19:13:06;25.80;89.30
8872;DHT22;4472;52.092;9.820;2022-08-25T19:15:53;25.70;89.10
8872;DHT22;4472;52.092;9.820;2022-08-25T19:18:40;25.70;90.20
8872;DHT22;4472;52.092;9.820;2022-08-25T19:21:28;25.70;90.20
8872;DHT22;4472;52.092;9.820;2022-08-25T19:24:16;25.60;90.40
8872;DHT22;4472;52.092;9.820;2022-08-25T19:27:04;25.60;90.50
8872;DHT22;4472;52.092;9.820;2022-08-25T19:29:52;25.50;90.70
8872;DHT22;4472;52.092;9.820;2022-08-25T19:32:41;25.50;90.70
8872;DHT22;4472;52.092;9.820;2022-08-25T19:35:31;25.40;91.00
8872;DHT22;4472;52.092;9.820;2022-08-25T19:38:22;25.30;91.00
8872;DHT22;4472;52.092;9.820;2022-08-25T19:41:10;25.30;91.10
8872;DHT22;4472;52.092;9.820;2022-08-25T19:43:59;25.20;91.20
8872;DHT22;4472;52.092;9.820;2022-08-25T19:46:47;25.20;91.20
8872;DHT22;4472;52.092;9.820;2022-08-25T19:49:39;25.20;91.60
8872;DHT22;4472;52.092;9.820;2022-08-25T19:52:26;25.10;91.50
8872;DHT22;4472;52.092;9.820;2022-08-25T19:55:13;25.10;91.70
8872;DHT22;4472;52.092;9.820;2022-08-25T19:58:01;25.10;91.70
8872;DHT22;4472;52.092;9.820;2022-08-25T20:00:49;25.10;92.10
8872;DHT22;4472;52.092;9.820;2022-08-25T20:03:36;25.00;91.90
8872;DHT22;4472;52.092;9.820;2022-08-25T20:06:24;24.90;92.20
8872;DHT22;4472;52.092;9.820;2022-08-25T20:09:11;25.10;92.20
8872;DHT22;4472;52.092;9.820;2022-08-25T20:11:58;25.00;92.40
8872;DHT22;4472;52.092;9.820;2022-08-25T20:14:47;25.00;92.50
8872;DHT22;4472;52.092;9.820;2022-08-25T20:17:35;25.00;92.80
8872;DHT22;4472;52.092;9.820;2022-08-25T20:20:23;25.00;92.80
8872;DHT22;4472;52.092;9.820;2022-08-25T20:23:12;25.00;93.10
8872;DHT22;4472;52.092;9.820;2022-08-25T20:26:17;25.00;93.10
8872;DHT22;4472;52.092;9.820;2022-08-25T20:29:04;24.90;93.20
8872;DHT22;4472;52.092;9.820;2022-08-25T20:31:51;24.90;93.50
8872;DHT22;4472;52.092;9.820;2022-08-25T20:34:40;24.90;93.60
8872;DHT22;4472;52.092;9.820;2022-08-25T20:37:27;24.90;93.70
8872;DHT22;4472;52.092;9.820;2022-08-25T20:40:17;24.90;93.80
8872;DHT22;4472;52.092;9.820;2022-08-25T20:43:04;24.80;93.80
8872;DHT22;4472;52.092;9.820;2022-08-25T20:45:58;24.80;94.00
8872;DHT22;4472;52.092;9.820;2022-08-25T20:48:46;24.60;94.00
8872;DHT22;4472;52.092;9.820;2022-08-25T20:51:34;24.70;94.40
8872;DHT22;4472;52.092;9.820;2022-08-25T20:54:22;24.70;94.50
8872;DHT22;4472;52.092;9.820;2022-08-25T20:57:12;24.60;94.40
8872;DHT22;4472;52.092;9.820;2022-08-25T21:00:00;24.60;94.70
8872;DHT22;4472;52.092;9.820;2022-08-25T21:02:47;24.60;94.50
8872;DHT22;4472;52.092;9.820;2022-08-25T21:05:38;24.50;94.60
8872;DHT22;4472;52.092;9.820;2022-08-25T21:08:26;24.40;94.80
8872;DHT22;4472;52.092;9.820;2022-08-25T21:11:16;24.30;94.80
8872;DHT22;4472;52.092;9.820;2022-08-25T21:14:05;24.30;95.10
8872;DHT22;4472;52.092;9.820;2022-08-25T21:16:53;24.30;95.20
8872;DHT22;4472;52.092;9.820;2022-08-25T21:19:41;24.20;95.30
8872;DHT22;4472;52.092;9.820;2022-08-25T21:22:28;24.20;95.50
8872;DHT22;4472;52.092;9.820;2022-08-25T21:25:17;24.10;95.80
8872;DHT22;4472;52.092;9.820;2022-08-25T21:28:05;24.10;96.20
8872;DHT22;4472;52.092;9.820;2022-08-25T21:30:52;24.10;96.00
8872;DHT22;4472;52.092;9.820;2022-08-25T21:33:39;24.00;96.20
8872;DHT22;4472;52.092;9.820;2022-08-25T21:36:28;24.00;96.30
8872;DHT22;4472;52.092;9.820;2022-08-25T21:39:15;24.00;96.60
8872;DHT22;4472;52.092;9.820;2022-08-25T21:42:04;24.00;96.70
8872;DHT22;4472;52.092;9.820;2022-08-25T21:44:52;24.00;96.90
8872;DHT22;4472;52.092;9.820;2022-08-25T21:47:39;24.00;96.90
8872;DHT22;4472;52.092;9.820;2022-08-25T21:50:27;24.00;96.90
8872;DHT22;4472;52.092;9.820;2022-08-25T21:53:14;23.90;97.10
8872;DHT22;4472;52.092;9.820;2022-08-25T21:56:02;23.90;97.20
8872;DHT22;4472;52.092;9.820;2022-08-25T21:58:51;23.90;97.30
8872;DHT22;4472;52.092;9.820;2022-08-25T22:01:39;23.90;97.60
8872;DHT22;4472;52.092;9.820;2022-08-25T22:04:27;23.90;97.70
8872;DHT22;4472;52.092;9.820;2022-08-25T22:07:15;23.90;97.80
8872;DHT22;4472;52.092;9.820;2022-08-25T22:10:03;23.90;98.10
8872;DHT22;4472;52.092;9.820;2022-08-25T22:12:50;23.90;98.20
8872;DHT22;4472;52.092;9.820;2022-08-25T22:15:39;23.80;98.30
8872;DHT22;4472;52.092;9.820;2022-08-25T22:18:26;23.80;98.50
8872;DHT22;4472;52.092;9.820;2022-08-25T22:21:16;23.80;98.50
8872;DHT22;4472;52.092;9.820;2022-08-25T22:24:04;23.70;98.60
8872;DHT22;4472;52.092;9.820;2022-08-25T22:26:51;23.90;98.80
8872;DHT22;4472;52.092;9.820;2022-08-25T22:29:38;23.80;98.90
8872;DHT22;4472;52.092;9.820;2022-08-25T22:32:27;23.80;98.90
8872;DHT22;4472;52.092;9.820;2022-08-25T22:35:14;23.70;99.00
8872;DHT22;4472;52.092;9.820;2022-08-25T22:38:02;23.80;98.90
8872;DHT22;4472;52.092;9.820;2022-08-25T22:40:49;23.70;98.90
8872;DHT22;4472;52.092;9.820;2022-08-25T22:43:37;23.70;99.00
8872;DHT22;4472;52.092;9.820;2022-08-25T22:46:28;23.70;99.00
8872;DHT22;4472;52.092;9.820;2022-08-25T22:49:17;23.70;99.20
8872;DHT22;4472;52.092;9.820;2022-08-25T22:52:05;23.70;99.20
8872;DHT22;4472;52.092;9.820;2022-08-25T22:54:52;23.70;99.20
8872;DHT22;4472;52.092;9.820;2022-08-25T22:57:39;23.70;99.40
8872;DHT22;4472;52.092;9.820;2022-08-25T23:00:27;23.70;99.40
8872;DHT22;4472;52.092;9.820;2022-08-25T23:03:15;23.60;99.50
8872;DHT22;4472;52.092;9.820;2022-08-25T23:06:03;23.60;99.60
8872;DHT22;4472;52.092;9.820;2022-08-25T23:08:51;23.60;99.80
8872;DHT22;4472;52.092;9.820;2022-08-25T23:11:38;23.60;99.60
8872;DHT22;4472;52.092;9.820;2022-08-25T23:14:25;23.50;99.90
8872;DHT22;4472;52.092;9.820;2022-08-25T23:17:13;23.50;99.90
8872;DHT22;4472;52.092;9.820;2022-08-25T23:20:00;23.40;99.90
8872;DHT22;4472;52.092;9.820;2022-08-25T23:23:08;23.30;99.90
8872;DHT22;4472;52.092;9.820;2022-08-25T23:25:55;23.30;99.90
8872;DHT22;4472;52.092;9.820;2022-08-25T23:28:43;23.20;99.90
8872;DHT22;4472;52.092;9.820;2022-08-25T23:31:30;23.20;99.90
8872;DHT22;4472;52.092;9.820;2022-08-25T23:34:17;23.10;99.90
8872;DHT22;4472;52.092;9.820;2022-08-25T23:37:05;23.10;99.90
8872;DHT22;4472;52.092;9.820;2022-08-25T23:39:53;23.10;99.90
8872;DHT22;4472;52.092;9.820;2022-08-25T23:42:41;23.00;99.90
8872;DHT22;4472;52.092;9.820;2022-08-25T23:45:28;23.10;99.90
8872;DHT22;4472;52.092;9.820;2022-08-25T23:48:15;22.80;99.90
8872;DHT22;4472;52.092;9.820;2022-08-25T23:51:03;22.80;99.90
8872;DHT22;4472;52.092;9.820;2022-08-25T23:53:50;22.80;99.90
8872;DHT22;4472;52.092;9.820;2022-08-25T23:56:40;22.60;99.90
8872;DHT22;4472;52.092;9.820;2022-08-25T23:59:27;22.50;99.90
